createdAt,value
2023-07-01T00:00:36.765Z,94676.00
2023-07-01T00:01:36.795Z,94680.00
2023-07-01T00:02:36.823Z,94678.00
2023-07-01T00:03:36.833Z,94676.00
2023-07-01T00:04:36.850Z,94674.00
2023-07-01T00:05:36.705Z,94674.00
2023-07-01T00:06:36.715Z,94676.00
2023-07-01T00:07:36.693Z,94674.00
2023-07-01T00:08:36.686Z,94672.00
2023-07-01T00:09:36.698Z,94676.00
2023-07-01T00:10:36.704Z,94674.00
2023-07-01T00:11:36.678Z,94674.00
2023-07-01T00:12:36.724Z,94674.00
2023-07-01T00:13:36.654Z,94674.00
2023-07-01T00:14:36.676Z,94676.00
2023-07-01T00:15:36.656Z,94676.00
2023-07-01T00:16:36.647Z,94672.00
2023-07-01T00:17:36.695Z,94676.00
2023-07-01T00:18:36.632Z,94670.00
2023-07-01T00:19:36.616Z,94668.00
2023-07-01T00:20:36.615Z,94668.00
2023-07-01T00:21:36.620Z,94660.00
2023-07-01T00:22:36.607Z,94660.00
2023-07-01T00:23:36.596Z,94660.00
2023-07-01T00:24:36.568Z,94660.00
2023-07-01T00:25:36.593Z,94660.00
2023-07-01T00:26:36.559Z,94658.00
2023-07-01T00:27:36.626Z,94658.00
2023-07-01T00:28:36.711Z,94660.00
2023-07-01T00:29:36.636Z,94658.00
2023-07-01T00:30:36.707Z,94658.00
2023-07-01T00:31:36.723Z,94656.00
2023-07-01T00:32:36.781Z,94656.00
2023-07-01T00:33:36.696Z,94653.00
2023-07-01T00:34:36.781Z,94651.00
2023-07-01T00:35:36.750Z,94653.00
2023-07-01T00:36:36.755Z,94649.00
2023-07-01T00:37:36.850Z,94649.00
2023-07-01T00:38:36.767Z,94649.00
2023-07-01T00:39:36.809Z,94651.00
2023-07-01T00:40:36.809Z,94647.00
2023-07-01T00:41:36.805Z,94649.00
2023-07-01T00:42:36.853Z,94649.00
2023-07-01T00:43:36.857Z,94649.00
2023-07-01T00:44:36.887Z,94647.00
2023-07-01T00:45:36.909Z,94649.00
2023-07-01T00:46:37.031Z,94649.00
2023-07-01T00:47:36.949Z,94651.00
2023-07-01T00:48:36.952Z,94651.00
2023-07-01T00:49:36.943Z,94645.00
2023-07-01T00:50:37.010Z,94645.00
2023-07-01T00:51:36.997Z,94645.00
2023-07-01T00:52:37.046Z,94645.00
2023-07-01T00:53:37.046Z,94649.00
2023-07-01T00:54:37.050Z,94649.00
2023-07-01T00:55:37.035Z,94647.00
2023-07-01T00:56:37.100Z,94647.00
2023-07-01T00:57:37.103Z,94647.00
2023-07-01T00:58:37.320Z,94645.00
2023-07-01T00:59:37.148Z,94645.00
2023-07-01T01:00:37.165Z,94645.00
2023-07-01T01:01:37.161Z,94647.00
2023-07-01T01:02:37.210Z,94641.00
2023-07-01T01:03:37.281Z,94645.00
2023-07-01T01:04:37.323Z,94643.00
2023-07-01T01:05:37.239Z,94647.00
2023-07-01T01:06:37.301Z,94647.00
2023-07-01T01:07:37.350Z,94645.00
2023-07-01T01:08:37.317Z,94645.00
2023-07-01T01:09:37.351Z,94645.00
2023-07-01T01:10:37.359Z,94643.00
2023-07-01T01:11:37.345Z,94645.00
2023-07-01T01:12:37.396Z,94643.00
2023-07-01T01:13:37.422Z,94643.00
2023-07-01T01:14:37.408Z,94643.00
2023-07-01T01:15:37.459Z,94643.00
2023-07-01T01:16:37.480Z,94645.00
2023-07-01T01:17:37.493Z,94645.00
2023-07-01T01:18:37.500Z,94643.00
2023-07-01T01:19:37.592Z,94645.00
2023-07-01T01:20:37.570Z,94641.00
2023-07-01T01:21:37.591Z,94643.00
2023-07-01T01:22:43.225Z,94643.00
2023-07-01T01:23:38.589Z,94643.00
2023-07-01T01:24:37.555Z,94643.00
2023-07-01T01:25:37.584Z,94643.00
2023-07-01T01:26:37.568Z,94641.00
2023-07-01T01:27:37.546Z,94641.00
2023-07-01T01:28:37.572Z,94641.00
2023-07-01T01:29:37.546Z,94639.00
2023-07-01T01:30:37.534Z,94639.00
2023-07-01T01:31:37.607Z,94639.00
2023-07-01T01:32:37.551Z,94637.00
2023-07-01T01:33:37.564Z,94637.00
2023-07-01T01:34:37.518Z,94637.00
2023-07-01T01:35:37.528Z,94637.00
2023-07-01T01:36:37.525Z,94637.00
2023-07-01T01:37:37.469Z,94635.00
2023-07-01T01:38:37.486Z,94631.00
2023-07-01T01:39:37.497Z,94633.00
2023-07-01T01:40:37.486Z,94633.00
2023-07-01T01:41:37.503Z,94631.00
2023-07-01T01:42:37.592Z,94631.00
2023-07-01T01:43:37.529Z,94633.00
2023-07-01T01:44:37.591Z,94629.00
2023-07-01T01:45:37.640Z,94629.00
2023-07-01T01:46:37.712Z,94631.00
2023-07-01T01:47:37.776Z,94629.00
2023-07-01T01:48:37.729Z,94627.00
2023-07-01T01:49:37.691Z,94627.00
2023-07-01T01:50:37.711Z,94625.00
2023-07-01T01:51:37.760Z,94625.00
2023-07-01T01:52:37.790Z,94615.00
2023-07-01T01:53:37.862Z,94615.00
2023-07-01T01:54:37.821Z,94615.00
2023-07-01T01:55:37.883Z,94615.00
2023-07-01T01:56:37.936Z,94621.00
2023-07-01T01:57:37.945Z,94617.00
2023-07-01T01:58:37.953Z,94615.00
2023-07-01T01:59:37.961Z,94615.00
2023-07-01T02:00:38.028Z,94615.00
2023-07-01T02:01:38.086Z,94615.00
2023-07-01T02:02:38.699Z,94617.00
2023-07-01T02:03:38.256Z,94613.00
2023-07-01T02:04:38.344Z,94615.00
2023-07-01T02:05:38.216Z,94613.00
2023-07-01T02:06:38.191Z,94611.00
2023-07-01T02:07:38.577Z,94613.00
2023-07-01T02:08:38.235Z,94613.00
2023-07-01T02:09:38.284Z,94611.00
2023-07-01T02:10:38.281Z,94611.00
2023-07-01T02:11:38.325Z,94611.00
2023-07-01T02:12:38.531Z,94611.00
2023-07-01T02:13:38.383Z,94611.00
2023-07-01T02:14:38.371Z,94611.00
2023-07-01T02:15:38.456Z,94611.00
2023-07-01T02:16:38.466Z,94609.00
2023-07-01T02:17:38.652Z,94609.00
2023-07-01T02:18:38.480Z,94609.00
2023-07-01T02:19:38.511Z,94611.00
2023-07-01T02:20:38.559Z,94609.00
2023-07-01T02:21:38.574Z,94606.00
2023-07-01T02:22:39.023Z,94607.00
2023-07-01T02:23:38.598Z,94609.00
2023-07-01T02:24:39.812Z,94607.00
2023-07-01T02:25:38.645Z,94606.00
2023-07-01T02:26:38.704Z,94604.00
2023-07-01T02:27:38.756Z,94607.00
2023-07-01T02:28:38.742Z,94607.00
2023-07-01T02:29:38.768Z,94606.00
2023-07-01T02:30:38.845Z,94606.00
2023-07-01T02:31:38.841Z,94604.00
2023-07-01T02:32:39.128Z,94606.00
2023-07-01T02:33:38.867Z,94604.00
2023-07-01T02:34:38.906Z,94606.00
2023-07-01T02:35:38.897Z,94606.00
2023-07-01T02:36:38.939Z,94606.00
2023-07-01T02:37:39.014Z,94606.00
2023-07-01T02:38:38.988Z,94606.00
2023-07-01T02:39:39.046Z,94602.00
2023-07-01T02:40:39.044Z,94604.00
2023-07-01T02:41:39.129Z,94604.00
2023-07-01T02:42:39.543Z,94604.00
2023-07-01T02:43:39.137Z,94604.00
2023-07-01T02:44:39.182Z,94606.00
2023-07-01T02:45:39.174Z,94604.00
2023-07-01T02:46:39.237Z,94604.00
2023-07-01T02:47:39.321Z,94602.00
2023-07-01T02:48:39.256Z,94602.00
2023-07-01T02:49:39.303Z,94602.00
2023-07-01T02:50:39.325Z,94604.00
2023-07-01T02:51:39.400Z,94604.00
2023-07-01T02:52:39.395Z,94602.00
2023-07-01T02:53:39.413Z,94602.00
2023-07-01T02:54:39.452Z,94600.00
2023-07-01T02:55:39.451Z,94598.00
2023-07-01T02:56:39.496Z,94600.00
2023-07-01T02:57:39.552Z,94598.00
2023-07-01T02:58:39.568Z,94598.00
2023-07-01T02:59:39.641Z,94600.00
2023-07-01T03:00:39.635Z,94598.00
2023-07-01T03:01:39.745Z,94598.00
2023-07-01T03:02:39.875Z,94600.00
2023-07-01T03:03:39.744Z,94600.00
2023-07-01T03:04:39.794Z,94600.00
2023-07-01T03:05:39.804Z,94598.00
2023-07-01T03:06:39.799Z,94596.00
2023-07-01T03:07:39.854Z,94592.00
2023-07-01T03:08:39.904Z,94594.00
2023-07-01T03:09:39.872Z,94596.00
2023-07-01T03:10:39.959Z,94596.00
2023-07-01T03:11:39.942Z,94598.00
2023-07-01T03:12:39.981Z,94600.00
2023-07-01T03:13:40.002Z,94604.00
2023-07-01T03:14:39.997Z,94604.00
2023-07-01T03:15:40.077Z,94604.00
2023-07-01T03:16:40.108Z,94604.00
2023-07-01T03:17:40.120Z,94604.00
2023-07-01T03:18:40.141Z,94607.00
2023-07-01T03:19:40.161Z,94604.00
2023-07-01T03:20:40.171Z,94600.00
2023-07-01T03:21:40.217Z,94604.00
2023-07-01T03:22:40.241Z,94600.00
2023-07-01T03:23:40.292Z,94600.00
2023-07-01T03:24:40.341Z,94598.00
2023-07-01T03:25:40.348Z,94598.00
2023-07-01T03:26:40.362Z,94598.00
2023-07-01T03:27:40.400Z,94600.00
2023-07-01T03:28:40.414Z,94600.00
2023-07-01T03:29:40.443Z,94602.00
2023-07-01T03:30:40.476Z,94602.00
2023-07-01T03:31:40.571Z,94602.00
2023-07-01T03:32:40.547Z,94604.00
2023-07-01T03:33:40.561Z,94602.00
2023-07-01T03:34:40.614Z,94602.00
2023-07-01T03:35:40.627Z,94602.00
2023-07-01T03:36:41.454Z,94602.00
2023-07-01T03:37:40.672Z,94600.00
2023-07-01T03:38:40.692Z,94600.00
2023-07-01T03:39:40.755Z,94600.00
2023-07-01T03:40:40.786Z,94600.00
2023-07-01T03:41:40.789Z,94598.00
2023-07-01T03:42:40.930Z,94598.00
2023-07-01T03:43:40.848Z,94600.00
2023-07-01T03:44:40.963Z,94598.00
2023-07-01T03:45:40.982Z,94600.00
2023-07-01T03:46:40.967Z,94600.00
2023-07-01T03:47:41.072Z,94596.00
2023-07-01T03:48:41.022Z,94594.00
2023-07-01T03:49:41.084Z,94592.00
2023-07-01T03:50:41.148Z,94588.00
2023-07-01T03:51:41.151Z,94586.00
2023-07-01T03:52:41.628Z,94588.00
2023-07-01T03:53:41.205Z,94590.00
2023-07-01T03:54:41.237Z,94586.00
2023-07-01T03:55:41.321Z,94586.00
2023-07-01T03:56:41.321Z,94586.00
2023-07-01T03:57:41.403Z,94588.00
2023-07-01T03:58:41.397Z,94588.00
2023-07-01T03:59:41.456Z,94590.00
2023-07-01T04:00:41.482Z,94590.00
2023-07-01T04:01:41.513Z,94588.00
2023-07-01T04:02:41.599Z,94590.00
2023-07-01T04:03:41.616Z,94592.00
2023-07-01T04:04:41.609Z,94592.00
2023-07-01T04:05:41.609Z,94592.00
2023-07-01T04:06:41.665Z,94590.00
2023-07-01T04:07:41.721Z,94590.00
2023-07-01T04:08:41.728Z,94592.00
2023-07-01T04:09:41.727Z,94590.00
2023-07-01T04:10:41.800Z,94592.00
2023-07-01T04:11:41.871Z,94592.00
2023-07-01T04:12:41.861Z,94592.00
2023-07-01T04:13:41.913Z,94592.00
2023-07-01T04:14:41.997Z,94588.00
2023-07-01T04:15:41.987Z,94592.00
2023-07-01T04:16:42.048Z,94588.00
2023-07-01T04:17:42.087Z,94586.00
2023-07-01T04:18:42.097Z,94588.00
2023-07-01T04:19:42.115Z,94586.00
2023-07-01T04:20:42.185Z,94590.00
2023-07-01T04:21:42.195Z,94592.00
2023-07-01T04:22:42.576Z,94592.00
2023-07-01T04:23:42.248Z,94590.00
2023-07-01T04:24:42.247Z,94590.00
2023-07-01T04:25:42.321Z,94592.00
2023-07-01T04:26:42.362Z,94588.00
2023-07-01T04:27:42.555Z,94588.00
2023-07-01T04:28:42.442Z,94590.00
2023-07-01T04:29:42.456Z,94586.00
2023-07-01T04:30:42.479Z,94588.00
2023-07-01T04:31:42.648Z,94588.00
2023-07-01T04:32:43.089Z,94590.00
2023-07-01T04:33:42.600Z,94592.00
2023-07-01T04:34:42.676Z,94592.00
2023-07-01T04:35:42.682Z,94592.00
2023-07-01T04:36:42.738Z,94590.00
2023-07-01T04:37:43.104Z,94592.00
2023-07-01T04:38:42.735Z,94596.00
2023-07-01T04:39:42.808Z,94596.00
2023-07-01T04:40:42.829Z,94596.00
2023-07-01T04:41:42.857Z,94592.00
2023-07-01T04:42:43.083Z,94590.00
2023-07-01T04:43:42.952Z,94596.00
2023-07-01T04:44:43.010Z,94596.00
2023-07-01T04:45:43.051Z,94598.00
2023-07-01T04:46:43.106Z,94596.00
2023-07-01T04:47:43.636Z,94598.00
2023-07-01T04:48:43.117Z,94596.00
2023-07-01T04:49:43.169Z,94598.00
2023-07-01T04:50:43.206Z,94598.00
2023-07-01T04:51:43.229Z,94596.00
2023-07-01T04:52:43.316Z,94592.00
2023-07-01T04:53:43.319Z,94594.00
2023-07-01T04:54:43.342Z,94592.00
2023-07-01T04:55:43.378Z,94592.00
2023-07-01T04:56:43.398Z,94596.00
2023-07-01T04:57:43.447Z,94596.00
2023-07-01T04:58:43.468Z,94592.00
2023-07-01T04:59:43.518Z,94598.00
2023-07-01T05:00:43.541Z,94594.00
2023-07-01T05:01:43.647Z,94596.00
2023-07-01T05:02:44.247Z,94598.00
2023-07-01T05:03:43.724Z,94600.00
2023-07-01T05:04:43.763Z,94602.00
2023-07-01T05:05:43.738Z,94604.00
2023-07-01T05:06:43.836Z,94602.00
2023-07-01T05:07:44.165Z,94604.00
2023-07-01T05:08:43.851Z,94607.00
2023-07-01T05:09:43.853Z,94606.00
2023-07-01T05:10:43.889Z,94607.00
2023-07-01T05:11:43.951Z,94607.00
2023-07-01T05:12:44.077Z,94606.00
2023-07-01T05:13:44.065Z,94607.00
2023-07-01T05:14:44.081Z,94607.00
2023-07-01T05:15:44.106Z,94606.00
2023-07-01T05:16:44.161Z,94604.00
2023-07-01T05:17:44.631Z,94604.00
2023-07-01T05:18:44.216Z,94602.00
2023-07-01T05:19:44.248Z,94604.00
2023-07-01T05:20:45.712Z,94604.00
2023-07-01T05:21:44.322Z,94604.00
2023-07-01T05:22:44.366Z,94609.00
2023-07-01T05:23:44.401Z,94611.00
2023-07-01T05:24:44.425Z,94611.00
2023-07-01T05:25:44.451Z,94615.00
2023-07-01T05:26:44.490Z,94615.00
2023-07-01T05:27:44.544Z,94617.00
2023-07-01T05:28:44.575Z,94619.00
2023-07-01T05:29:44.607Z,94621.00
2023-07-01T05:30:44.891Z,94615.00
2023-07-01T05:31:44.644Z,94617.00
2023-07-01T05:32:44.725Z,94613.00
2023-07-01T05:33:44.755Z,94615.00
2023-07-01T05:34:44.837Z,94617.00
2023-07-01T05:35:44.812Z,94613.00
2023-07-01T05:36:44.867Z,94615.00
2023-07-01T05:37:44.907Z,94617.00
2023-07-01T05:38:44.975Z,94619.00
2023-07-01T05:39:44.982Z,94621.00
2023-07-01T05:40:45.335Z,94621.00
2023-07-01T05:41:45.079Z,94623.00
2023-07-01T05:42:45.136Z,94619.00
2023-07-01T05:43:45.169Z,94623.00
2023-07-01T05:44:45.186Z,94623.00
2023-07-01T05:45:45.255Z,94625.00
2023-07-01T05:46:45.303Z,94631.00
2023-07-01T05:47:45.398Z,94631.00
2023-07-01T05:48:45.355Z,94631.00
2023-07-01T05:49:45.399Z,94637.00
2023-07-01T05:50:45.729Z,94635.00
2023-07-01T05:51:45.509Z,94633.00
2023-07-01T05:52:45.560Z,94639.00
2023-07-01T05:53:45.593Z,94639.00
2023-07-01T05:54:45.670Z,94637.00
2023-07-01T05:55:45.664Z,94641.00
2023-07-01T05:56:45.723Z,94639.00
2023-07-01T05:57:45.743Z,94639.00
2023-07-01T05:58:45.819Z,94641.00
2023-07-01T05:59:45.851Z,94641.00
2023-07-01T06:00:46.202Z,94645.00
2023-07-01T06:01:46.030Z,94643.00
2023-07-01T06:02:46.262Z,94643.00
2023-07-01T06:03:46.130Z,94643.00
2023-07-01T06:04:46.089Z,94643.00
2023-07-01T06:05:46.095Z,94645.00
2023-07-01T06:06:46.094Z,94645.00
2023-07-01T06:07:46.174Z,94647.00
2023-07-01T06:08:46.220Z,94651.00
2023-07-01T06:09:46.228Z,94649.00
2023-07-01T06:10:46.485Z,94649.00
2023-07-01T06:11:46.332Z,94647.00
2023-07-01T06:12:46.361Z,94647.00
2023-07-01T06:13:46.374Z,94649.00
2023-07-01T06:14:46.463Z,94654.00
2023-07-01T06:15:46.527Z,94654.00
2023-07-01T06:16:46.531Z,94654.00
2023-07-01T06:17:46.825Z,94654.00
2023-07-01T06:18:46.609Z,94653.00
2023-07-01T06:19:46.626Z,94654.00
2023-07-01T06:20:46.856Z,94653.00
2023-07-01T06:21:46.746Z,94656.00
2023-07-01T06:22:46.803Z,94658.00
2023-07-01T06:23:46.800Z,94658.00
2023-07-01T06:24:46.873Z,94658.00
2023-07-01T06:25:46.897Z,94668.00
2023-07-01T06:26:46.984Z,94670.00
2023-07-01T06:27:46.991Z,94670.00
2023-07-01T06:28:47.082Z,94668.00
2023-07-01T06:29:47.061Z,94670.00
2023-07-01T06:30:47.220Z,94668.00
2023-07-01T06:31:47.218Z,94670.00
2023-07-01T06:32:47.231Z,94670.00
2023-07-01T06:33:47.178Z,94670.00
2023-07-01T06:34:47.213Z,94670.00
2023-07-01T06:35:47.258Z,94672.00
2023-07-01T06:36:47.258Z,94670.00
2023-07-01T06:37:47.642Z,94670.00
2023-07-01T06:38:47.351Z,94674.00
2023-07-01T06:39:47.406Z,94674.00
2023-07-01T06:40:47.714Z,94674.00
2023-07-01T06:41:47.414Z,94674.00
2023-07-01T06:42:47.485Z,94680.00
2023-07-01T06:43:47.498Z,94676.00
2023-07-01T06:44:47.539Z,94678.00
2023-07-01T06:45:47.662Z,94678.00
2023-07-01T06:46:47.627Z,94680.00
2023-07-01T06:47:47.675Z,94682.00
2023-07-01T06:48:47.640Z,94680.00
2023-07-01T06:49:47.736Z,94682.00
2023-07-01T06:50:47.965Z,94676.00
2023-07-01T06:51:47.809Z,94678.00
2023-07-01T06:52:47.836Z,94678.00
2023-07-01T06:53:47.846Z,94678.00
2023-07-01T06:54:48.984Z,94682.00
2023-07-01T06:55:47.898Z,94682.00
2023-07-01T06:56:47.939Z,94682.00
2023-07-01T06:57:47.979Z,94678.00
2023-07-01T06:58:48.055Z,94680.00
2023-07-01T06:59:48.058Z,94682.00
2023-07-01T07:00:48.329Z,94680.00
2023-07-01T07:01:48.215Z,94682.00
2023-07-01T07:02:48.220Z,94678.00
2023-07-01T07:03:48.235Z,94680.00
2023-07-01T07:04:48.207Z,94680.00
2023-07-01T07:05:48.223Z,94682.00
2023-07-01T07:06:48.263Z,94682.00
2023-07-01T07:07:48.321Z,94686.00
2023-07-01T07:08:48.312Z,94684.00
2023-07-01T07:09:48.360Z,94684.00
2023-07-01T07:10:48.685Z,94686.00
2023-07-01T07:11:48.447Z,94688.00
2023-07-01T07:12:48.478Z,94688.00
2023-07-01T07:13:48.563Z,94694.00
2023-07-01T07:14:48.526Z,94692.00
2023-07-01T07:15:48.597Z,94692.00
2023-07-01T07:16:48.643Z,94690.00
2023-07-01T07:17:48.760Z,94694.00
2023-07-01T07:18:48.769Z,94688.00
2023-07-01T07:19:48.736Z,94690.00
2023-07-01T07:20:48.935Z,94692.00
2023-07-01T07:21:48.826Z,94690.00
2023-07-01T07:22:48.862Z,94692.00
2023-07-01T07:23:48.925Z,94694.00
2023-07-01T07:24:48.966Z,94696.00
2023-07-01T07:25:48.983Z,94696.00
2023-07-01T07:26:49.018Z,94696.00
2023-07-01T07:27:49.010Z,94696.00
2023-07-01T07:28:49.048Z,94699.00
2023-07-01T07:29:49.103Z,94699.00
2023-07-01T07:30:49.385Z,94699.00
2023-07-01T07:31:49.145Z,94699.00
2023-07-01T07:32:49.256Z,94699.00
2023-07-01T07:33:49.240Z,94698.00
2023-07-01T07:34:49.278Z,94698.00
2023-07-01T07:35:49.295Z,94698.00
2023-07-01T07:36:49.318Z,94694.00
2023-07-01T07:37:49.357Z,94696.00
2023-07-01T07:38:49.387Z,94694.00
2023-07-01T07:39:49.430Z,94698.00
2023-07-01T07:40:49.856Z,94698.00
2023-07-01T07:41:49.526Z,94698.00
2023-07-01T07:42:49.565Z,94698.00
2023-07-01T07:43:49.585Z,94698.00
2023-07-01T07:44:49.617Z,94699.00
2023-07-01T07:45:49.624Z,94699.00
2023-07-01T07:46:49.796Z,94696.00
2023-07-01T07:47:50.208Z,94698.00
2023-07-01T07:48:49.749Z,94698.00
2023-07-01T07:49:49.754Z,94696.00
2023-07-01T07:50:50.141Z,94699.00
2023-07-01T07:51:49.867Z,94698.00
2023-07-01T07:52:49.901Z,94699.00
2023-07-01T07:53:49.964Z,94698.00
2023-07-01T07:54:49.940Z,94694.00
2023-07-01T07:55:49.983Z,94694.00
2023-07-01T07:56:50.050Z,94694.00
2023-07-01T07:57:50.053Z,94694.00
2023-07-01T07:58:50.112Z,94696.00
2023-07-01T07:59:50.147Z,94696.00
2023-07-01T08:00:50.186Z,94696.00
2023-07-01T08:01:50.225Z,94696.00
2023-07-01T08:02:50.253Z,94698.00
2023-07-01T08:03:50.335Z,94698.00
2023-07-01T08:04:50.497Z,94699.00
2023-07-01T08:05:50.360Z,94703.00
2023-07-01T08:06:50.356Z,94699.00
2023-07-01T08:07:50.398Z,94701.00
2023-07-01T08:08:50.473Z,94703.00
2023-07-01T08:09:50.445Z,94703.00
2023-07-01T08:10:50.660Z,94703.00
2023-07-01T08:11:50.537Z,94705.00
2023-07-01T08:12:50.567Z,94705.00
2023-07-01T08:13:50.617Z,94703.00
2023-07-01T08:14:50.682Z,94709.00
2023-07-01T08:15:50.691Z,94709.00
2023-07-01T08:16:50.790Z,94707.00
2023-07-01T08:17:50.836Z,94709.00
2023-07-01T08:18:50.851Z,94711.00
2023-07-01T08:19:50.839Z,94713.00
2023-07-01T08:20:51.028Z,94713.00
2023-07-01T08:21:50.950Z,94713.00
2023-07-01T08:22:50.906Z,94713.00
2023-07-01T08:23:50.961Z,94717.00
2023-07-01T08:24:51.041Z,94715.00
2023-07-01T08:25:51.038Z,94719.00
2023-07-01T08:26:51.077Z,94717.00
2023-07-01T08:27:51.121Z,94719.00
2023-07-01T08:28:51.132Z,94721.00
2023-07-01T08:29:51.170Z,94723.00
2023-07-01T08:30:51.448Z,94723.00
2023-07-01T08:31:51.230Z,94723.00
2023-07-01T08:32:51.307Z,94721.00
2023-07-01T08:33:51.312Z,94723.00
2023-07-01T08:34:51.363Z,94723.00
2023-07-01T08:35:51.384Z,94719.00
2023-07-01T08:36:51.416Z,94723.00
2023-07-01T08:37:51.517Z,94723.00
2023-07-01T08:38:51.506Z,94723.00
2023-07-01T08:39:51.517Z,94721.00
2023-07-01T08:40:51.603Z,94721.00
2023-07-01T08:41:51.603Z,94721.00
2023-07-01T08:42:51.635Z,94723.00
2023-07-01T08:43:51.662Z,94723.00
2023-07-01T08:44:51.686Z,94723.00
2023-07-01T08:45:51.725Z,94723.00
2023-07-01T08:46:51.736Z,94721.00
2023-07-01T08:47:51.832Z,94721.00
2023-07-01T08:48:51.789Z,94719.00
2023-07-01T08:49:51.819Z,94717.00
2023-07-01T08:50:51.823Z,94719.00
2023-07-01T08:51:51.874Z,94715.00
2023-07-01T08:52:52.021Z,94715.00
2023-07-01T08:53:51.926Z,94715.00
2023-07-01T08:54:51.967Z,94717.00
2023-07-01T08:55:51.965Z,94715.00
2023-07-01T08:56:51.991Z,94717.00
2023-07-01T08:57:52.044Z,94715.00
2023-07-01T08:58:52.072Z,94717.00
2023-07-01T08:59:52.104Z,94713.00
2023-07-01T09:00:52.115Z,94713.00
2023-07-01T09:01:52.210Z,94719.00
2023-07-01T09:02:52.251Z,94715.00
2023-07-01T09:03:52.275Z,94715.00
2023-07-01T09:04:52.240Z,94717.00
2023-07-01T09:05:52.283Z,94717.00
2023-07-01T09:06:52.335Z,94715.00
2023-07-01T09:07:52.667Z,94717.00
2023-07-01T09:08:52.405Z,94715.00
2023-07-01T09:09:52.383Z,94719.00
2023-07-01T09:10:52.499Z,94717.00
2023-07-01T09:11:52.452Z,94719.00
2023-07-01T09:12:52.712Z,94721.00
2023-07-01T09:13:52.552Z,94721.00
2023-07-01T09:14:52.557Z,94721.00
2023-07-01T09:15:52.763Z,94719.00
2023-07-01T09:16:52.625Z,94721.00
2023-07-01T09:17:52.654Z,94723.00
2023-07-01T09:18:52.671Z,94721.00
2023-07-01T09:19:52.700Z,94723.00
2023-07-01T09:20:52.750Z,94721.00
2023-07-01T09:21:52.770Z,94721.00
2023-07-01T09:22:52.820Z,94719.00
2023-07-01T09:23:52.847Z,94719.00
2023-07-01T09:24:52.903Z,94719.00
2023-07-01T09:25:52.906Z,94719.00
2023-07-01T09:26:52.924Z,94717.00
2023-07-01T09:27:53.187Z,94719.00
2023-07-01T09:28:53.027Z,94717.00
2023-07-01T09:29:53.028Z,94717.00
2023-07-01T09:30:53.042Z,94719.00
2023-07-01T09:31:53.269Z,94717.00
2023-07-01T09:32:53.168Z,94719.00
2023-07-01T09:33:53.146Z,94719.00
2023-07-01T09:34:53.190Z,94719.00
2023-07-01T09:35:53.181Z,94719.00
2023-07-01T09:36:53.236Z,94719.00
2023-07-01T09:37:53.297Z,94719.00
2023-07-01T09:38:53.308Z,94721.00
2023-07-01T09:39:53.308Z,94723.00
2023-07-01T09:40:53.366Z,94721.00
2023-07-01T09:41:53.380Z,94721.00
2023-07-01T09:42:53.406Z,94721.00
2023-07-01T09:43:53.442Z,94723.00
2023-07-01T09:44:53.444Z,94721.00
2023-07-01T09:45:53.487Z,94721.00
2023-07-01T09:46:53.520Z,94719.00
2023-07-01T09:47:53.703Z,94719.00
2023-07-01T09:48:53.627Z,94719.00
2023-07-01T09:49:53.607Z,94721.00
2023-07-01T09:50:53.644Z,94719.00
2023-07-01T09:51:53.653Z,94721.00
2023-07-01T09:52:53.667Z,94719.00
2023-07-01T09:53:53.694Z,94717.00
2023-07-01T09:54:53.704Z,94719.00
2023-07-01T09:55:53.722Z,94713.00
2023-07-01T09:56:53.738Z,94713.00
2023-07-01T09:57:54.219Z,94713.00
2023-07-01T09:58:53.836Z,94713.00
2023-07-01T09:59:53.858Z,94713.00
2023-07-01T10:00:53.922Z,94713.00
2023-07-01T10:01:53.968Z,94713.00
2023-07-01T10:02:54.074Z,94713.00
2023-07-01T10:03:54.059Z,94713.00
2023-07-01T10:04:54.067Z,94711.00
2023-07-01T10:05:54.052Z,94711.00
2023-07-01T10:06:54.121Z,94711.00
2023-07-01T10:07:54.111Z,94709.00
2023-07-01T10:08:54.140Z,94709.00
2023-07-01T10:09:54.188Z,94705.00
2023-07-01T10:10:54.245Z,94705.00
2023-07-01T10:11:54.268Z,94705.00
2023-07-01T10:12:54.265Z,94705.00
2023-07-01T10:13:55.208Z,94703.00
2023-07-01T10:14:54.323Z,94699.00
2023-07-01T10:15:54.376Z,94699.00
2023-07-01T10:16:54.447Z,94696.00
2023-07-01T10:17:54.476Z,94696.00
2023-07-01T10:18:54.500Z,94696.00
2023-07-01T10:19:54.513Z,94698.00
2023-07-01T10:20:54.531Z,94696.00
2023-07-01T10:21:54.578Z,94698.00
2023-07-01T10:22:54.586Z,94696.00
2023-07-01T10:23:54.640Z,94696.00
2023-07-01T10:24:54.649Z,94688.00
2023-07-01T10:25:54.711Z,94694.00
2023-07-01T10:26:54.708Z,94690.00
2023-07-01T10:27:54.787Z,94690.00
2023-07-01T10:28:54.810Z,94688.00
2023-07-01T10:29:54.831Z,94688.00
2023-07-01T10:30:54.903Z,94686.00
2023-07-01T10:31:54.879Z,94688.00
2023-07-01T10:32:54.932Z,94686.00
2023-07-01T10:33:54.926Z,94688.00
2023-07-01T10:34:54.982Z,94688.00
2023-07-01T10:35:55.032Z,94684.00
2023-07-01T10:36:55.001Z,94682.00
2023-07-01T10:37:55.069Z,94682.00
2023-07-01T10:38:55.085Z,94680.00
2023-07-01T10:39:55.122Z,94682.00
2023-07-01T10:40:55.164Z,94680.00
2023-07-01T10:41:55.188Z,94682.00
2023-07-01T10:42:55.187Z,94678.00
2023-07-01T10:43:55.193Z,94678.00
2023-07-01T10:44:55.242Z,94674.00
2023-07-01T10:45:55.252Z,94678.00
2023-07-01T10:46:55.342Z,94678.00
2023-07-01T10:47:55.336Z,94674.00
2023-07-01T10:48:55.397Z,94674.00
2023-07-01T10:49:55.354Z,94672.00
2023-07-01T10:50:55.400Z,94674.00
2023-07-01T10:51:55.387Z,94674.00
2023-07-01T10:52:55.470Z,94672.00
2023-07-01T10:53:55.463Z,94670.00
2023-07-01T10:54:55.504Z,94672.00
2023-07-01T10:55:55.477Z,94670.00
2023-07-01T10:56:55.539Z,94660.00
2023-07-01T10:57:55.549Z,94668.00
2023-07-01T10:58:55.568Z,94668.00
2023-07-01T10:59:55.564Z,94660.00
2023-07-01T11:00:55.561Z,94660.00
2023-07-01T11:01:55.611Z,94660.00
2023-07-01T11:02:55.700Z,94660.00
2023-07-01T11:03:55.698Z,94668.00
2023-07-01T11:04:55.665Z,94658.00
2023-07-01T11:05:55.707Z,94656.00
2023-07-01T11:06:55.676Z,94656.00
2023-07-01T11:07:55.710Z,94654.00
2023-07-01T11:08:55.862Z,94651.00
2023-07-01T11:09:55.785Z,94651.00
2023-07-01T11:10:55.801Z,94649.00
2023-07-01T11:11:55.811Z,94647.00
2023-07-01T11:12:55.813Z,94649.00
2023-07-01T11:13:55.826Z,94645.00
2023-07-01T11:14:55.821Z,94643.00
2023-07-01T11:15:55.902Z,94639.00
2023-07-01T11:16:55.886Z,94639.00
2023-07-01T11:17:56.004Z,94639.00
2023-07-01T11:18:55.903Z,94641.00
2023-07-01T11:19:55.940Z,94639.00
2023-07-01T11:20:55.904Z,94639.00
2023-07-01T11:21:55.972Z,94637.00
2023-07-01T11:22:55.981Z,94637.00
2023-07-01T11:23:56.030Z,94635.00
2023-07-01T11:24:56.047Z,94637.00
2023-07-01T11:25:56.028Z,94637.00
2023-07-01T11:26:56.060Z,94635.00
2023-07-01T11:27:56.063Z,94635.00
2023-07-01T11:28:56.075Z,94637.00
2023-07-01T11:29:56.030Z,94633.00
2023-07-01T11:30:56.094Z,94633.00
2023-07-01T11:31:56.146Z,94633.00
2023-07-01T11:32:56.156Z,94633.00
2023-07-01T11:33:56.057Z,94629.00
2023-07-01T11:34:56.112Z,94629.00
2023-07-01T11:35:56.127Z,94627.00
2023-07-01T11:36:56.198Z,94627.00
2023-07-01T11:37:56.154Z,94627.00
2023-07-01T11:38:56.169Z,94629.00
2023-07-01T11:39:56.177Z,94623.00
2023-07-01T11:40:56.203Z,94623.00
2023-07-01T11:41:56.213Z,94625.00
2023-07-01T11:42:56.225Z,94621.00
2023-07-01T11:43:56.203Z,94621.00
2023-07-01T11:44:56.301Z,94623.00